createdAt,value
2017-10-10T00:00:28.184Z,30.15
2017-10-10T00:02:56.980Z,29.17
2017-10-10T00:05:26.673Z,28.08
2017-10-10T00:07:54.748Z,26.25
2017-10-10T00:10:23.553Z,28.85
2017-10-10T00:12:52.349Z,34.40
2017-10-10T00:15:20.384Z,28.95
2017-10-10T00:17:48.444Z,27.40
2017-10-10T00:20:17.372Z,28.67
2017-10-10T00:22:46.292Z,31.62
2017-10-10T00:25:15.327Z,27.73
2017-10-10T00:27:43.364Z,28.38
2017-10-10T00:30:11.392Z,31.20
2017-10-10T00:32:40.192Z,25.52
2017-10-10T00:35:08.232Z,26.17
2017-10-10T00:37:36.272Z,34.60
2017-10-10T00:40:04.291Z,28.75
2017-10-10T00:42:40.207Z,33.33
2017-10-10T00:45:09.220Z,27.35
2017-10-10T00:47:37.255Z,32.40
2017-10-10T00:50:05.291Z,25.67
2017-10-10T00:52:33.321Z,25.08
2017-10-10T00:55:01.341Z,28.70
2017-10-10T00:57:50.231Z,32.00
2017-10-10T01:00:19.152Z,24.08
2017-10-10T01:02:49.164Z,31.60
2017-10-10T01:05:17.188Z,27.87
2017-10-10T01:07:46.211Z,29.35
2017-10-10T01:10:14.259Z,29.17
2017-10-10T01:12:42.327Z,28.02
2017-10-10T01:15:10.331Z,24.87
2017-10-10T01:17:38.376Z,28.15
2017-10-10T01:20:06.404Z,30.10
2017-10-10T01:22:34.440Z,26.33
2017-10-10T01:25:02.479Z,24.63
2017-10-10T01:27:31.291Z,25.52
2017-10-10T01:29:59.304Z,21.37
2017-10-10T01:32:28.264Z,23.55
2017-10-10T01:34:57.243Z,22.98
2017-10-10T01:37:26.227Z,23.83
2017-10-10T01:39:54.280Z,28.38
2017-10-10T01:42:23.065Z,22.48
2017-10-10T01:44:56.507Z,23.65
2017-10-10T01:47:25.427Z,22.30
2017-10-10T01:49:53.455Z,24.10
2017-10-10T01:52:24.280Z,20.77
2017-10-10T01:54:55.343Z,23.55
2017-10-10T01:57:23.375Z,22.05
2017-10-10T01:59:51.517Z,23.98
2017-10-10T02:02:19.551Z,23.00
2017-10-10T02:04:47.555Z,21.90
2017-10-10T02:07:15.583Z,22.92
2017-10-10T02:09:44.576Z,23.73
2017-10-10T02:12:13.556Z,28.33
2017-10-10T02:14:41.587Z,23.00
2017-10-10T02:17:09.603Z,21.15
2017-10-10T02:19:37.623Z,21.90
2017-10-10T02:22:05.675Z,22.00
2017-10-10T02:24:33.703Z,20.58
2017-10-10T02:27:01.727Z,21.33
2017-10-10T02:29:29.771Z,21.33
2017-10-10T02:31:58.563Z,22.83
2017-10-10T02:34:27.346Z,18.23
2017-10-10T02:36:56.256Z,21.55
2017-10-10T02:39:24.275Z,20.73
2017-10-10T02:41:52.338Z,18.40
2017-10-10T02:44:20.367Z,22.10
2017-10-10T02:46:48.434Z,19.80
2017-10-10T02:49:20.159Z,18.92
2017-10-10T02:51:48.954Z,23.17
2017-10-10T02:54:17.739Z,19.85
2017-10-10T02:56:46.583Z,20.02
2017-10-10T02:59:15.606Z,20.12
2017-10-10T03:01:43.626Z,16.08
2017-10-10T03:04:11.763Z,19.35
2017-10-10T03:06:40.582Z,21.65
2017-10-10T03:09:08.619Z,20.48
2017-10-10T03:11:36.643Z,21.10
2017-10-10T03:14:04.683Z,23.12
2017-10-10T03:16:33.462Z,21.17
2017-10-10T03:19:03.262Z,18.12
2017-10-10T03:21:32.106Z,16.92
2017-10-10T03:24:00.142Z,19.35
2017-10-10T03:26:28.274Z,21.67
2017-10-10T03:28:56.306Z,20.77
2017-10-10T03:31:24.326Z,21.20
2017-10-10T03:33:53.310Z,20.67
2017-10-10T03:36:21.328Z,21.08
2017-10-10T03:38:49.350Z,19.17
2017-10-10T03:41:17.387Z,21.08
2017-10-10T03:43:48.650Z,20.95
2017-10-10T03:46:17.673Z,20.02
2017-10-10T03:48:45.684Z,19.40
2017-10-10T03:51:13.706Z,17.95
2017-10-10T03:53:42.526Z,22.50
2017-10-10T03:56:10.543Z,21.40
2017-10-10T03:58:38.574Z,20.55
2017-10-10T04:01:06.610Z,17.70
2017-10-10T04:03:35.394Z,15.38
2017-10-10T04:06:04.179Z,16.80
2017-10-10T04:08:32.978Z,18.23
2017-10-10T04:11:01.774Z,21.83
2017-10-10T04:13:29.794Z,16.33
2017-10-10T04:15:57.830Z,14.77
2017-10-10T04:18:25.846Z,18.65
2017-10-10T04:20:54.829Z,15.48
2017-10-10T04:23:22.870Z,15.30
2017-10-10T04:25:51.086Z,16.25
2017-10-10T04:28:19.118Z,17.40
2017-10-10T04:30:48.171Z,17.35
2017-10-10T04:33:16.190Z,17.37
2017-10-10T04:35:44.209Z,16.30
2017-10-10T04:38:12.254Z,14.13
2017-10-10T04:40:44.209Z,16.50
2017-10-10T04:43:12.254Z,15.05
2017-10-10T04:45:42.222Z,14.00
2017-10-10T04:48:11.022Z,16.02
2017-10-10T04:50:39.826Z,13.95
2017-10-10T04:53:07.854Z,12.55
2017-10-10T04:55:35.881Z,16.08
2017-10-10T04:58:03.930Z,14.70
2017-10-10T05:00:31.946Z,18.40
2017-10-10T05:03:00.957Z,14.65
2017-10-10T05:05:29.974Z,17.33
2017-10-10T05:07:57.969Z,14.50
2017-10-10T05:10:26.002Z,16.30
2017-10-10T05:12:54.809Z,14.50
2017-10-10T05:15:22.843Z,14.30
2017-10-10T05:17:51.826Z,16.77
2017-10-10T05:20:19.883Z,16.05
2017-10-10T05:22:48.798Z,13.60
2017-10-10T05:25:17.790Z,15.07
2017-10-10T05:27:46.321Z,18.02
2017-10-10T05:30:14.353Z,16.77
2017-10-10T05:32:43.180Z,16.08
2017-10-10T05:35:15.357Z,16.33
2017-10-10T05:37:43.381Z,14.40
2017-10-10T05:40:12.178Z,16.85
2017-10-10T05:42:41.973Z,15.73
2017-10-10T05:45:10.889Z,13.95
2017-10-10T05:47:38.918Z,15.45
2017-10-10T05:50:07.937Z,16.77
2017-10-10T05:52:36.742Z,16.37
2017-10-10T05:55:04.757Z,13.90
2017-10-10T05:57:32.805Z,16.70
2017-10-10T06:00:01.835Z,14.32
2017-10-10T06:02:29.865Z,13.30
2017-10-10T06:04:57.953Z,19.08
2017-10-10T06:07:25.996Z,14.50
2017-10-10T06:09:54.033Z,12.45
2017-10-10T06:12:22.844Z,12.10
2017-10-10T06:14:51.748Z,12.88
2017-10-10T06:17:19.783Z,11.80
2017-10-10T06:19:48.582Z,13.05
2017-10-10T06:22:16.614Z,12.15
2017-10-10T06:24:46.676Z,11.93
2017-10-10T06:27:14.725Z,12.25
2017-10-10T06:29:47.608Z,13.95
2017-10-10T06:32:17.516Z,11.32
2017-10-10T06:34:46.316Z,11.05
2017-10-10T06:37:16.093Z,12.60
2017-10-10T06:39:44.337Z,10.50
2017-10-10T06:42:12.365Z,10.43
2017-10-10T06:44:42.196Z,10.55
2017-10-10T06:47:10.236Z,10.95
2017-10-10T06:49:49.157Z,10.50
2017-10-10T06:52:27.072Z,11.95
2017-10-10T06:57:18.059Z,9.35
2017-10-10T07:02:28.649Z,9.13
2017-10-10T07:04:57.748Z,8.73
2017-10-10T07:07:25.796Z,10.80
2017-10-10T07:09:55.848Z,12.23
2017-10-10T07:12:24.673Z,7.93
2017-10-10T07:14:52.700Z,8.77
2017-10-10T07:17:20.724Z,7.73
2017-10-10T07:19:49.885Z,12.57
2017-10-10T07:22:20.589Z,7.37
2017-10-10T07:24:49.593Z,9.85
2017-10-10T07:27:18.380Z,7.13
2017-10-10T07:29:46.436Z,10.23
2017-10-10T07:32:15.464Z,6.40
2017-10-10T07:34:44.252Z,8.53
2017-10-10T07:37:14.028Z,10.68
2017-10-10T07:39:44.057Z,7.22
2017-10-10T07:42:12.165Z,5.97
2017-10-10T07:44:41.108Z,5.95
2017-10-10T07:47:11.144Z,6.97
2017-10-10T07:49:40.942Z,6.87
2017-10-10T07:52:08.972Z,6.47
2017-10-10T07:54:38.024Z,8.05
2017-10-10T07:57:06.812Z,6.80
2017-10-10T07:59:36.596Z,6.07
2017-10-10T08:02:04.648Z,5.90
2017-10-10T08:04:32.680Z,6.45
2017-10-10T08:07:01.652Z,6.70
2017-10-10T08:09:30.476Z,6.20
2017-10-10T08:11:58.507Z,6.68
2017-10-10T08:14:28.512Z,5.57
2017-10-10T08:17:00.688Z,5.87
2017-10-10T08:19:28.716Z,5.67
2017-10-10T08:21:56.732Z,6.03
2017-10-10T08:24:26.544Z,5.80
2017-10-10T08:26:55.540Z,5.97
2017-10-10T08:29:23.551Z,6.37
2017-10-10T08:31:53.540Z,6.60
2017-10-10T08:34:22.316Z,5.77
2017-10-10T08:36:54.158Z,11.60
2017-10-10T08:39:22.180Z,5.13
2017-10-10T08:41:50.192Z,4.80
2017-10-10T08:44:19.201Z,4.37
2017-10-10T08:46:47.216Z,6.23
2017-10-10T08:49:15.232Z,6.70
2017-10-10T08:51:43.272Z,4.93
2017-10-10T08:54:12.072Z,5.20
2017-10-10T08:56:40.096Z,4.43
2017-10-10T08:59:08.144Z,4.03
2017-10-10T09:01:36.924Z,5.60
2017-10-10T09:04:05.711Z,10.67
2017-10-10T09:06:34.508Z,4.30
2017-10-10T09:09:03.308Z,4.20
2017-10-10T09:11:31.335Z,3.70
2017-10-10T09:13:59.368Z,4.30
2017-10-10T09:16:27.401Z,4.67
2017-10-10T09:18:57.184Z,4.50
2017-10-10T09:21:25.208Z,7.33
2017-10-10T09:23:53.257Z,4.73
2017-10-10T09:26:23.044Z,4.50
2017-10-10T09:28:51.080Z,6.90
2017-10-10T09:31:19.112Z,4.63
2017-10-10T09:33:47.907Z,4.77
2017-10-10T09:36:16.715Z,4.63
2017-10-10T09:38:44.736Z,5.10
2017-10-10T09:41:14.740Z,5.30
2017-10-10T09:43:43.739Z,5.00
2017-10-10T09:46:13.731Z,6.90
2017-10-10T09:48:42.759Z,5.00
2017-10-10T09:51:10.780Z,5.40
2017-10-10T09:53:41.816Z,5.87
2017-10-10T09:56:09.859Z,5.53
2017-10-10T09:58:39.832Z,5.30
2017-10-10T10:01:07.859Z,4.63
2017-10-10T10:03:36.796Z,7.60
2017-10-10T10:06:04.846Z,5.27
2017-10-10T10:08:32.864Z,5.13
2017-10-10T10:11:02.755Z,4.77
2017-10-10T10:13:31.736Z,4.73
2017-10-10T10:15:59.771Z,6.17
2017-10-10T10:18:27.807Z,5.73
2017-10-10T10:20:58.319Z,6.30
2017-10-10T10:23:27.295Z,6.50
2017-10-10T10:25:55.340Z,6.20
2017-10-10T10:28:23.391Z,8.90
2017-10-10T10:30:52.130Z,6.10
2017-10-10T10:33:21.121Z,6.03
2017-10-10T10:35:49.135Z,5.03
2017-10-10T10:38:17.170Z,5.03
2017-10-10T10:40:46.156Z,6.27
2017-10-10T10:43:14.892Z,5.83
2017-10-10T10:45:43.912Z,5.50
2017-10-10T10:48:13.979Z,7.53
2017-10-10T10:50:42.014Z,6.20
2017-10-10T10:53:10.043Z,7.80
2017-10-10T10:55:38.099Z,6.30
2017-10-10T10:58:07.043Z,4.43
2017-10-10T11:00:35.055Z,5.87
2017-10-10T11:03:06.767Z,4.30
2017-10-10T11:05:34.782Z,4.73
2017-10-10T11:08:02.803Z,5.27
2017-10-10T11:10:30.827Z,9.80
2017-10-10T11:13:02.006Z,4.03
2017-10-10T11:15:31.227Z,4.60
2017-10-10T11:17:59.239Z,4.30
2017-10-10T11:20:28.183Z,3.97
2017-10-10T11:22:57.938Z,3.77
2017-10-10T11:25:25.978Z,3.97
2017-10-10T11:27:54.779Z,3.60
2017-10-10T11:30:23.603Z,3.57
2017-10-10T11:32:51.622Z,3.73
2017-10-10T11:35:20.598Z,4.33
2017-10-10T11:37:48.618Z,3.97
2017-10-10T11:40:17.567Z,5.83
2017-10-10T11:42:45.590Z,5.10
2017-10-10T11:45:14.638Z,3.73
2017-10-10T11:47:43.426Z,3.73
2017-10-10T11:50:12.226Z,3.90
2017-10-10T11:52:41.046Z,5.37
2017-10-10T11:55:09.067Z,4.40
2017-10-10T11:57:38.050Z,3.70
2017-10-10T12:00:06.098Z,5.90
2017-10-10T12:02:34.131Z,3.77
2017-10-10T12:05:02.152Z,3.67
2017-10-10T12:07:30.197Z,4.00
2017-10-10T12:09:58.216Z,4.00
2017-10-10T12:12:30.406Z,5.37
2017-10-10T12:14:59.158Z,6.43
2017-10-10T12:17:27.188Z,5.00
2017-10-10T12:19:55.234Z,4.85
2017-10-10T12:22:23.258Z,4.40
2017-10-10T12:24:52.247Z,5.47
2017-10-10T12:27:20.318Z,5.97
2017-10-10T12:29:49.314Z,6.43
2017-10-10T12:32:17.343Z,6.72
2017-10-10T12:34:45.382Z,7.50
2017-10-10T12:37:14.986Z,7.05
2017-10-10T12:39:44.042Z,7.25
2017-10-10T12:42:13.053Z,8.07
2017-10-10T12:44:41.074Z,7.87
2017-10-10T12:47:09.110Z,7.20
2017-10-10T12:49:37.933Z,7.80
2017-10-10T12:52:05.958Z,8.45
2017-10-10T12:54:35.418Z,9.20
2017-10-10T12:57:04.451Z,8.18
2017-10-10T12:59:33.430Z,8.10
2017-10-10T13:02:01.466Z,10.98
2017-10-10T13:04:29.506Z,9.67
2017-10-10T13:06:57.547Z,10.60
2017-10-10T13:09:25.577Z,11.70
2017-10-10T13:11:54.665Z,8.52
2017-10-10T13:14:22.698Z,9.13
2017-10-10T13:16:51.493Z,9.07
2017-10-10T13:19:20.302Z,9.90
2017-10-10T13:21:49.345Z,8.67
2017-10-10T13:24:17.388Z,9.20
2017-10-10T13:26:46.422Z,8.90
2017-10-10T13:29:14.453Z,7.97
2017-10-10T13:31:42.474Z,8.70
2017-10-10T13:34:11.309Z,8.37
2017-10-10T13:36:40.229Z,11.80
2017-10-10T13:39:08.261Z,8.20
2017-10-10T13:41:36.293Z,9.30
2017-10-10T13:44:06.278Z,7.95
2017-10-10T13:46:35.213Z,11.83
2017-10-10T13:49:03.253Z,10.80
2017-10-10T13:51:32.054Z,10.27
2017-10-10T13:54:00.857Z,9.57
2017-10-10T13:56:29.821Z,10.10
2017-10-10T13:58:59.621Z,10.43
2017-10-10T14:01:27.645Z,10.18
2017-10-10T14:03:55.689Z,9.95
2017-10-10T14:06:24.490Z,10.55
2017-10-10T14:08:52.509Z,9.43
2017-10-10T14:11:20.549Z,8.80
2017-10-10T14:13:49.577Z,8.47
2017-10-10T14:16:17.617Z,8.77
2017-10-10T14:18:45.670Z,8.40
2017-10-10T14:21:14.617Z,8.70
2017-10-10T14:23:42.637Z,9.40
2017-10-10T14:26:10.669Z,8.87
2017-10-10T14:28:38.701Z,12.10
2017-10-10T14:31:15.170Z,9.00
2017-10-10T14:33:46.836Z,8.57
2017-10-10T14:36:14.871Z,8.07
2017-10-10T14:38:42.884Z,7.23
2017-10-10T14:41:10.917Z,8.27
2017-10-10T14:43:39.953Z,8.10
2017-10-10T14:46:07.976Z,7.50
2017-10-10T14:48:36.000Z,8.73
2017-10-10T14:51:04.821Z,9.03
2017-10-10T14:53:33.761Z,7.83
2017-10-10T14:56:01.789Z,8.13
2017-10-10T14:58:29.832Z,8.33
2017-10-10T15:00:58.622Z,7.77
2017-10-10T15:03:28.321Z,7.50
2017-10-10T15:05:57.118Z,6.93
2017-10-10T15:08:26.889Z,8.20
2017-10-10T15:10:55.892Z,7.47
2017-10-10T15:13:24.892Z,9.17
2017-10-10T15:15:52.912Z,7.97
2017-10-10T15:18:20.940Z,7.27
2017-10-10T15:20:49.737Z,7.87
2017-10-10T15:23:18.524Z,7.03
2017-10-10T15:25:47.344Z,7.30
2017-10-10T15:28:17.316Z,6.90
2017-10-10T15:30:45.829Z,9.93
2017-10-10T15:33:14.773Z,10.17
2017-10-10T15:35:42.833Z,11.47
2017-10-10T15:38:10.860Z,10.03
2017-10-10T15:40:38.876Z,9.33
2017-10-10T15:43:07.876Z,8.43
2017-10-10T15:45:35.908Z,9.60
2017-10-10T15:48:03.936Z,8.80
2017-10-10T15:50:31.973Z,11.30
2017-10-10T15:53:00.000Z,7.03
2017-10-10T15:55:28.020Z,9.10
2017-10-10T15:57:57.024Z,9.10
2017-10-10T16:00:25.045Z,12.33
2017-10-10T16:02:53.076Z,11.43
2017-10-10T16:05:22.868Z,9.97
2017-10-10T16:07:50.896Z,13.10
2017-10-10T16:10:18.920Z,9.30
2017-10-10T16:12:46.952Z,12.47
2017-10-10T16:15:14.984Z,9.07
2017-10-10T16:17:43.004Z,8.63
2017-10-10T16:20:11.065Z,11.20
2017-10-10T16:22:39.100Z,11.73
2017-10-10T16:25:07.116Z,10.13
2017-10-10T16:27:35.155Z,10.80
2017-10-10T16:30:05.104Z,9.63
2017-10-10T16:32:36.568Z,12.87
2017-10-10T16:35:04.600Z,15.03
2017-10-10T16:37:32.628Z,10.97
2017-10-10T16:40:05.108Z,14.17
2017-10-10T16:42:34.901Z,10.43
2017-10-10T16:45:04.700Z,12.17
2017-10-10T16:47:33.696Z,12.20
2017-10-10T16:50:01.712Z,15.00
2017-10-10T16:52:29.751Z,11.77
2017-10-10T16:54:58.555Z,12.27
2017-10-10T16:57:26.587Z,9.33
2017-10-10T16:59:54.599Z,8.43
2017-10-10T17:02:24.572Z,10.87
2017-10-10T17:04:52.596Z,9.33
2017-10-10T17:07:20.636Z,11.88
2017-10-10T17:09:49.427Z,13.20
2017-10-10T17:12:18.240Z,12.10
2017-10-10T17:14:46.299Z,13.40
2017-10-10T17:17:14.342Z,11.07
2017-10-10T17:19:43.151Z,24.20
2017-10-10T17:22:12.940Z,10.37
2017-10-10T17:24:41.747Z,13.67
2017-10-10T17:27:10.526Z,9.03
2017-10-10T17:29:39.335Z,6.53
2017-10-10T17:32:07.367Z,11.80
2017-10-10T17:34:36.383Z,8.00
2017-10-10T17:37:04.405Z,10.53
2017-10-10T17:39:33.415Z,7.13
2017-10-10T17:42:01.431Z,6.27
2017-10-10T17:44:29.520Z,7.43
2017-10-10T17:46:57.523Z,6.93
2017-10-10T17:49:25.568Z,16.10
2017-10-10T17:51:53.607Z,8.37
2017-10-10T17:54:21.611Z,9.20
2017-10-10T17:56:49.639Z,10.87
2017-10-10T17:59:17.680Z,9.63
2017-10-10T18:01:46.647Z,10.50
2017-10-10T18:04:14.681Z,10.77
2017-10-10T18:06:43.640Z,10.10
2017-10-10T18:09:13.424Z,8.33
2017-10-10T18:11:41.451Z,8.40
2017-10-10T18:14:09.483Z,9.97
2017-10-10T18:16:37.503Z,9.90
2017-10-10T18:19:06.523Z,9.50
2017-10-10T18:21:34.552Z,8.47
2017-10-10T18:24:03.487Z,9.70
2017-10-10T18:26:31.510Z,10.30
2017-10-10T18:29:01.479Z,10.70
2017-10-10T18:31:34.963Z,8.53
2017-10-10T18:34:03.027Z,9.83
2017-10-10T18:36:31.059Z,10.43
2017-10-10T18:38:59.983Z,10.00
2017-10-10T18:41:29.013Z,12.50
2017-10-10T18:43:57.047Z,9.90
2017-10-10T18:46:25.086Z,11.20
2017-10-10T18:48:53.131Z,11.90
2017-10-10T18:51:21.939Z,9.67
2017-10-10T18:53:49.974Z,12.60
2017-10-10T18:56:18.019Z,11.50
2017-10-10T18:58:47.027Z,9.70
2017-10-10T19:01:17.047Z,9.23
2017-10-10T19:03:45.067Z,10.73
2017-10-10T19:06:14.019Z,16.07
2017-10-10T19:08:42.122Z,12.20
2017-10-10T19:11:10.112Z,29.97
2017-10-10T19:13:40.067Z,25.83
2017-10-10T19:16:08.114Z,21.53
2017-10-10T19:18:38.031Z,18.47
2017-10-10T19:21:06.031Z,20.20
2017-10-10T19:23:34.839Z,14.70
2017-10-10T19:26:02.863Z,14.63
2017-10-10T19:28:30.891Z,17.23
2017-10-10T19:30:59.947Z,18.10
2017-10-10T19:33:28.878Z,22.17
2017-10-10T19:35:56.922Z,16.00
2017-10-10T19:38:25.730Z,16.33
2017-10-10T19:40:53.762Z,22.33
2017-10-10T19:43:21.802Z,28.57
2017-10-10T19:45:50.842Z,19.03
2017-10-10T19:48:19.647Z,13.00
2017-10-10T19:50:47.678Z,14.17
2017-10-10T19:53:15.760Z,11.07
2017-10-10T19:55:43.808Z,12.80
2017-10-10T19:58:11.830Z,13.90
2017-10-10T20:00:41.418Z,15.53
2017-10-10T20:03:10.225Z,17.17
2017-10-10T20:05:38.257Z,14.13
2017-10-10T20:08:07.266Z,12.53
2017-10-10T20:10:37.042Z,10.47
2017-10-10T20:13:06.047Z,13.67
2017-10-10T20:15:36.074Z,12.10
2017-10-10T20:18:09.658Z,12.10
2017-10-10T20:20:37.682Z,12.30
2017-10-10T20:23:10.254Z,11.53
2017-10-10T20:25:40.249Z,12.73
2017-10-10T20:28:09.058Z,13.47
2017-10-10T20:30:37.094Z,14.20
2017-10-10T20:33:10.077Z,13.23
2017-10-10T20:35:39.058Z,11.80
2017-10-10T20:38:07.098Z,13.30
2017-10-10T20:40:36.130Z,14.33
2017-10-10T20:43:05.129Z,15.27
2017-10-10T20:45:33.933Z,15.00
2017-10-10T20:48:02.734Z,13.73
2017-10-10T20:50:30.769Z,14.87
2017-10-10T20:52:58.806Z,11.40
2017-10-10T20:55:26.858Z,13.77
2017-10-10T20:57:54.882Z,12.07
2017-10-10T21:00:23.854Z,11.67
2017-10-10T21:02:51.918Z,13.40
2017-10-10T21:05:23.594Z,13.27
2017-10-10T21:07:51.637Z,12.50
2017-10-10T21:10:19.685Z,11.90
2017-10-10T21:12:48.722Z,14.57
2017-10-10T21:15:16.765Z,11.20
2017-10-10T21:17:45.806Z,11.70
2017-10-10T21:20:13.833Z,11.50
2017-10-10T21:22:41.869Z,13.30
2017-10-10T21:25:09.918Z,11.40
2017-10-10T21:27:38.709Z,11.30
2017-10-10T21:30:07.505Z,12.70
2017-10-10T21:32:36.301Z,12.37
2017-10-10T21:35:04.329Z,10.80
2017-10-10T21:37:32.361Z,13.70
2017-10-10T21:40:00.413Z,11.83
2017-10-10T21:42:28.445Z,12.10
2017-10-10T21:44:56.477Z,10.93
2017-10-10T21:47:24.525Z,11.47
2017-10-10T21:49:52.585Z,11.75
2017-10-10T21:52:21.361Z,10.93
2017-10-10T21:54:51.162Z,15.50
2017-10-10T21:57:19.985Z,10.90
2017-10-10T21:59:48.921Z,11.07
2017-10-10T22:02:16.989Z,14.60
2017-10-10T22:04:45.006Z,10.40
2017-10-10T22:07:13.041Z,10.23
2017-10-10T22:09:42.033Z,12.03
2017-10-10T22:12:11.181Z,9.70
2017-10-10T22:14:40.121Z,10.13
2017-10-10T22:17:08.170Z,9.23
2017-10-10T22:19:38.121Z,11.00
2017-10-10T22:22:06.917Z,10.17
2017-10-10T22:24:36.709Z,10.37
2017-10-10T22:27:05.500Z,10.57
2017-10-10T22:29:35.293Z,8.97
2017-10-10T22:32:03.353Z,9.85
2017-10-10T22:34:32.364Z,9.37
2017-10-10T22:37:00.389Z,8.83
2017-10-10T22:39:28.429Z,8.90
2017-10-10T22:41:57.217Z,10.97
2017-10-10T22:44:26.992Z,9.27
2017-10-10T22:46:55.029Z,9.03
2017-10-10T22:49:23.053Z,10.03
2017-10-10T22:51:51.849Z,8.93
2017-10-10T22:54:22.617Z,10.40
2017-10-10T22:56:50.653Z,8.87
2017-10-10T22:59:20.437Z,9.67
2017-10-10T23:01:48.537Z,12.63
2017-10-10T23:04:17.332Z,8.80
2017-10-10T23:06:47.147Z,8.67
2017-10-10T23:09:15.140Z,8.97
2017-10-10T23:11:44.057Z,7.93
2017-10-10T23:14:12.084Z,8.50
2017-10-10T23:16:41.040Z,9.57
2017-10-10T23:19:10.017Z,8.20
2017-10-10T23:21:38.061Z,8.00
2017-10-10T23:24:07.132Z,10.73
2017-10-10T23:26:35.146Z,8.77
2017-10-10T23:29:04.145Z,7.50
2017-10-10T23:31:32.192Z,7.50
2017-10-10T23:34:00.232Z,12.07
2017-10-10T23:36:28.281Z,8.40
2017-10-10T23:38:57.252Z,7.67
2017-10-10T23:41:25.289Z,8.30
2017-10-10T23:43:53.293Z,8.60
2017-10-10T23:46:21.348Z,8.60
2017-10-10T23:48:49.369Z,8.07
2017-10-10T23:51:17.396Z,9.00
2017-10-10T23:53:46.436Z,7.03
2017-10-10T23:56:15.381Z,9.03
2017-10-10T23:58:43.401Z,9.00
